Time;durP1;ratioP1;P1;durP2;ratioP2;P2;SDS_P1;SDS_P2;PMS_P1;PMS_P2;Temp;Humidity;BMP_temperature;BMP_pressure;BME280_temperature;BME280_humidity;BME280_pressure;Samples;Min_cycle;Max_cycle;Signal;HPM_P1;HPM_P2
2022/11/17 00:01:07;;;;;;;2.80;1.13;;;;;;;19.32;50.03;98696.88;4993540;28;20537;-72
2022/11/17 00:03:33;;;;;;;4.25;1.10;;;;;;;19.33;50.10;98693.22;4993716;28;20275;-71
2022/11/17 00:06:03;;;;;;;2.47;0.90;;;;;;;19.33;49.90;98690.59;4994530;28;20437;-72
2022/11/17 00:08:28;;;;;;;2.47;1.00;;;;;;;19.38;49.80;98679.47;4994077;28;20037;-72
2022/11/17 00:10:53;;;;;;;3.05;1.00;;;;;;;19.29;49.75;98676.09;4992928;28;20029;-72
2022/11/17 00:16:02;;;;;;;3.40;0.90;;;;;;;19.29;49.84;98683.22;4993923;28;20040;-71
2022/11/17 00:21:27;;;;;;;3.15;1.00;;;;;;;19.32;49.97;98667.81;4960914;28;20056;-71
2022/11/17 00:23:53;;;;;;;3.50;1.00;;;;;;;19.32;49.92;98672.28;4993521;28;20048;-73
2022/11/17 00:26:25;;;;;;;3.50;1.20;;;;;;;19.27;49.74;98649.06;4993595;28;20046;-71
2022/11/17 00:28:52;;;;;;;3.35;1.00;;;;;;;19.23;50.00;98626.66;4994039;28;20030;-70
2022/11/17 00:34:04;;;;;;;3.63;1.00;;;;;;;19.21;49.99;98611.00;4992548;28;20041;-72
2022/11/17 00:36:31;;;;;;;4.50;1.45;;;;;;;19.27;49.78;98630.59;4993720;28;20038;-70
2022/11/17 00:38:56;;;;;;;2.85;1.00;;;;;;;19.23;49.84;98617.94;4992722;28;20490;-72
2022/11/17 00:41:21;;;;;;;3.47;1.00;;;;;;;19.22;49.85;98609.19;4992762;28;20029;-72
2022/11/17 00:43:47;;;;;;;2.15;0.90;;;;;;;19.21;49.57;98615.47;4991390;28;20486;-72
2022/11/17 00:46:12;;;;;;;3.05;1.10;;;;;;;19.20;49.70;98617.31;4994080;28;20044;-72
2022/11/17 00:48:37;;;;;;;2.55;1.00;;;;;;;19.23;49.98;98599.44;4993858;28;20030;-72
2022/11/17 00:51:03;;;;;;;1.85;0.80;;;;;;;19.15;49.92;98593.28;4991633;28;20044;-72
2022/11/17 00:53:29;;;;;;;2.42;0.82;;;;;;;19.17;49.87;98595.75;4993664;28;20474;-72
2022/11/17 00:55:54;;;;;;;2.60;1.00;;;;;;;19.18;49.81;98592.91;4992751;28;20074;-71
2022/11/17 00:58:19;;;;;;;2.08;0.77;;;;;;;19.16;49.92;98604.66;4999322;28;20072;-71
2022/11/17 01:00:47;;;;;;;1.85;0.90;;;;;;;19.12;49.90;98576.97;4993192;28;20038;-72
2022/11/17 01:03:13;;;;;;;3.80;1.15;;;;;;;19.15;49.89;98574.81;4992813;28;20065;-71
2022/11/17 01:05:38;;;;;;;3.17;1.10;;;;;;;19.13;50.25;98583.91;4992962;28;20072;-71
2022/11/17 01:08:03;;;;;;;2.60;0.90;;;;;;;19.13;50.01;98568.06;4992670;28;20264;-72
2022/11/17 01:10:29;;;;;;;2.38;0.90;;;;;;;19.10;49.90;98561.31;4992775;28;20038;-72
2022/11/17 01:12:54;;;;;;;2.42;1.02;;;;;;;19.07;49.90;98545.84;4992521;28;20205;-71
2022/11/17 01:15:19;;;;;;;2.47;0.80;;;;;;;19.10;50.00;98561.31;4991999;28;20046;-71
2022/11/17 01:17:44;;;;;;;1.90;0.80;;;;;;;19.10;49.76;98549.97;4991628;28;20766;-71
2022/11/17 01:20:10;;;;;;;2.47;0.90;;;;;;;19.09;49.93;98559.72;4992680;28;20042;-72
2022/11/17 01:22:36;;;;;;;2.30;0.82;;;;;;;19.02;50.01;98542.97;4992133;28;20307;-69
2022/11/17 01:25:01;;;;;;;2.65;0.80;;;;;;;19.02;49.97;98538.50;4992716;28;20030;-72
2022/11/17 01:27:26;;;;;;;2.03;0.73;;;;;;;19.06;49.85;98538.13;4992877;28;20045;-71
2022/11/17 01:29:52;;;;;;;2.90;0.70;;;;;;;19.07;49.94;98542.41;4992431;28;20382;-71
2022/11/17 01:32:17;;;;;;;1.73;0.80;;;;;;;19.06;49.91;98546.88;4992492;28;20465;-71
2022/11/17 01:34:42;;;;;;;2.30;0.90;;;;;;;18.99;50.04;98543.34;4992284;28;20109;-72
2022/11/17 01:37:20;;;;;;;3.93;1.03;;;;;;;18.97;50.08;98522.41;4992355;28;20113;-70
2022/11/17 01:39:46;;;;;;;2.80;0.85;;;;;;;18.94;50.22;98503.47;4992419;28;20268;-72
2022/11/17 01:42:15;;;;;;;2.55;0.90;;;;;;;19.01;50.05;98513.13;4992639;28;20501;-72
2022/11/17 01:44:40;;;;;;;2.60;0.80;;;;;;;19.02;49.55;98527.94;4991981;28;20046;-72
2022/11/17 01:47:31;;;;;;;1.73;0.90;;;;;;;18.96;49.64;98533.97;4992107;28;20030;-72
2022/11/17 01:50:17;;;;;;;2.70;0.93;;;;;;;19.01;49.55;98533.44;4992572;28;20519;-70
2022/11/17 01:52:44;;;;;;;2.47;0.90;;;;;;;18.75;49.56;98499.59;4992142;28;20029;-70
2022/11/17 01:55:10;;;;;;;1.90;0.90;;;;;;;18.97;49.71;98540.88;4992114;28;20077;-70
2022/11/17 01:57:48;;;;;;;2.55;0.98;;;;;;;18.99;49.72;98538.06;4991324;28;20054;-72
2022/11/17 02:00:14;;;;;;;2.55;1.20;;;;;;;18.96;49.64;98535.78;4991273;28;20088;-70
2022/11/17 02:02:42;;;;;;;2.85;0.80;;;;;;;18.96;49.53;98525.22;4991853;28;20042;-71
2022/11/17 02:05:40;;;;;;;2.00;0.80;;;;;;;18.95;49.74;98513.06;4992081;28;20065;-72
2022/11/17 02:08:07;;;;;;;2.13;0.80;;;;;;;18.94;49.79;98516.69;4992575;28;20153;-71
2022/11/17 02:10:34;;;;;;;1.55;0.63;;;;;;;18.91;49.75;98519.69;4991982;28;20044;-70
2022/11/17 02:13:00;;;;;;;1.48;0.80;;;;;;;18.90;49.69;98518.88;4991411;28;20052;-71
2022/11/17 02:15:27;;;;;;;2.75;0.88;;;;;;;18.82;49.80;98509.22;4992054;28;20038;-71
2022/11/17 02:17:53;;;;;;;2.13;0.70;;;;;;;18.83;49.82;98497.66;4998302;28;20030;-70
2022/11/17 02:20:54;;;;;;;2.25;0.90;;;;;;;18.90;49.91;98499.56;4991757;28;20806;-70
2022/11/17 02:23:34;;;;;;;2.85;0.73;;;;;;;18.88;49.82;98497.13;4991728;28;20037;-70
2022/11/17 02:26:20;;;;;;;1.45;0.70;;;;;;;18.86;49.91;98483.31;4991004;28;20038;-70
2022/11/17 02:28:58;;;;;;;1.83;0.80;;;;;;;18.85;49.60;98465.84;4991021;28;20066;-73
2022/11/17 02:31:39;;;;;;;1.40;0.60;;;;;;;18.79;49.99;98464.72;4991261;28;20046;-70
2022/11/17 02:34:30;;;;;;;1.67;0.75;;;;;;;18.81;50.00;98468.00;4990930;28;20479;-72
2022/11/17 02:37:24;;;;;;;2.00;0.88;;;;;;;18.82;50.08;98461.72;4991487;28;20033;-73
2022/11/17 02:40:09;;;;;;;2.03;0.80;;;;;;;18.76;50.01;98444.00;4985866;28;20046;-72
2022/11/17 02:45:49;;;;;;;2.33;0.90;;;;;;;18.79;50.11;98432.25;4991506;28;20096;-71
2022/11/17 02:48:20;;;;;;;2.30;1.00;;;;;;;18.79;50.04;98437.53;4991328;28;20129;-72
2022/11/17 02:50:48;;;;;;;2.45;0.80;;;;;;;18.76;50.12;98425.53;4991510;28;21012;-72
2022/11/17 02:53:14;;;;;;;1.17;0.65;;;;;;;18.80;50.12;98431.22;4991989;28;20048;-71
2022/11/17 02:55:39;;;;;;;2.83;1.00;;;;;;;18.79;50.11;98425.16;4990008;28;20108;-71
2022/11/17 02:58:10;;;;;;;1.85;0.70;;;;;;;18.74;50.06;98422.25;4991735;28;20038;-71
2022/11/17 03:01:04;;;;;;;3.78;0.70;;;;;;;18.79;50.14;98421.72;4991514;28;20462;-70
2022/11/17 03:04:05;;;;;;;2.08;0.70;;;;;;;18.78;50.03;98420.06;4989138;28;20057;-70
2022/11/17 03:06:50;;;;;;;2.53;0.75;;;;;;;18.77;49.93;98419.25;4991651;28;20068;-71
2022/11/17 03:09:46;;;;;;;1.13;0.60;;;;;;;18.76;49.89;98408.88;4991011;28;20164;-71
2022/11/17 03:12:23;;;;;;;1.05;0.50;;;;;;;18.76;50.01;98406.25;4991015;28;20057;-72
2022/11/17 03:15:08;;;;;;;2.60;0.90;;;;;;;18.76;49.95;98399.13;4989574;28;20042;-70
2022/11/17 03:17:45;;;;;;;1.52;0.63;;;;;;;18.69;49.91;98387.69;4991254;28;20398;-69
2022/11/17 03:20:26;;;;;;;1.33;0.60;;;;;;;18.76;50.04;98406.25;4990973;28;20030;-71
2022/11/17 03:23:07;;;;;;;1.52;0.70;;;;;;;18.74;50.15;98395.88;4990476;28;20065;-70
2022/11/17 03:25:37;;;;;;;2.05;0.90;;;;;;;18.68;49.75;98384.25;4990298;28;20037;-72
2022/11/17 03:28:07;;;;;;;2.08;0.75;;;;;;;18.66;49.96;98375.72;4991132;28;20041;-71
2022/11/17 03:30:35;;;;;;;1.52;0.70;;;;;;;18.64;49.79;98368.97;4991156;28;20076;-71
2022/11/17 03:33:07;;;;;;;1.08;0.50;;;;;;;18.65;50.12;98366.16;4990256;28;20040;-72
2022/11/17 03:35:37;;;;;;;1.10;0.60;;;;;;;18.60;50.12;98360.63;4991006;28;20034;-72
2022/11/17 03:38:14;;;;;;;2.65;0.75;;;;;;;18.60;49.97;98351.91;4990084;28;20038;-73
2022/11/17 03:40:44;;;;;;;1.73;0.70;;;;;;;18.64;50.12;98363.69;4990895;28;20034;-72
2022/11/17 03:43:13;;;;;;;1.60;0.65;;;;;;;18.62;49.98;98350.69;4990635;28;20387;-70
2022/11/17 03:45:42;;;;;;;0.95;0.50;;;;;;;18.52;49.89;98336.19;4990511;28;20034;-72
2022/11/17 03:48:30;;;;;;;0.90;0.50;;;;;;;18.66;49.94;98345.88;4993879;28;20037;-72
2022/11/17 03:50:58;;;;;;;1.25;0.60;;;;;;;18.69;50.03;98350.75;4993753;28;20084;-71
2022/11/17 03:53:26;;;;;;;1.67;0.70;;;;;;;18.50;49.88;98315.28;4993741;28;20120;-72
2022/11/17 03:56:12;;;;;;;1.42;0.68;;;;;;;18.67;49.97;98348.34;4994513;28;20065;-72
2022/11/17 03:58:45;;;;;;;1.55;0.52;;;;;;;18.60;49.83;98346.63;4994443;28;20046;-71
2022/11/17 04:01:12;;;;;;;1.60;0.70;;;;;;;18.60;49.70;98349.28;4994254;28;20073;-71
2022/11/17 04:03:38;;;;;;;1.20;0.70;;;;;;;18.58;49.93;98327.50;4994023;28;20048;-71
2022/11/17 04:06:03;;;;;;;1.35;0.65;;;;;;;18.59;50.05;98326.53;4994091;28;20113;-72
2022/11/17 04:08:29;;;;;;;1.98;0.50;;;;;;;18.61;49.84;98321.88;4994273;28;20176;-72
2022/11/17 04:16:23;;;;;;;1.23;0.60;;;;;;;18.59;49.92;98327.31;4993366;28;20041;-72
2022/11/17 04:18:50;;;;;;;2.20;0.60;;;;;;;18.64;50.06;98348.72;4993840;28;20038;-71
2022/11/17 04:21:16;;;;;;;1.10;0.50;;;;;;;18.63;50.03;98339.16;4999926;28;20110;-72
2022/11/17 04:23:41;;;;;;;1.35;0.50;;;;;;;18.56;49.99;98321.63;4993758;28;20069;-71
2022/11/17 04:28:52;;;;;;;1.90;0.75;;;;;;;18.61;50.04;98343.81;4993952;28;20089;-71
2022/11/17 04:31:24;;;;;;;2.07;0.60;;;;;;;18.63;49.88;98356.81;4993835;28;20030;-71
2022/11/17 04:33:57;;;;;;;1.02;0.60;;;;;;;18.58;49.85;98340.69;4993309;28;20782;-70
2022/11/17 04:36:27;;;;;;;2.03;0.70;;;;;;;18.56;49.94;98332.16;5000041;28;20498;-71
2022/11/17 04:38:54;;;;;;;1.42;0.60;;;;;;;18.43;50.13;98288.03;5008482;28;20103;-71
2022/11/17 04:44:07;;;;;;;1.50;0.50;;;;;;;18.60;50.18;98304.44;4993943;28;20038;-72
2022/11/17 04:46:34;;;;;;;0.77;0.40;;;;;;;18.53;50.12;98296.44;4993342;28;20049;-73
2022/11/17 04:49:00;;;;;;;1.33;0.60;;;;;;;18.60;50.29;98297.31;4993341;28;20031;-71
2022/11/17 04:51:27;;;;;;;1.17;0.60;;;;;;;18.60;50.21;98299.16;4993352;28;20042;-73
2022/11/17 04:53:52;;;;;;;1.25;0.57;;;;;;;18.62;50.38;98299.78;4992852;28;20038;-72
2022/11/17 04:56:19;;;;;;;1.27;0.60;;;;;;;18.59;50.24;98292.22;4992515;28;20046;-72
2022/11/17 04:58:45;;;;;;;1.20;0.50;;;;;;;18.60;50.31;98286.75;4992078;28;20086;-71
2022/11/17 05:01:11;;;;;;;1.17;0.57;;;;;;;18.57;50.10;98281.88;4993321;28;20498;-71
2022/11/17 05:03:37;;;;;;;1.45;0.50;;;;;;;18.57;50.04;98287.13;4993267;28;20069;-71
2022/11/17 05:06:03;;;;;;;1.25;0.50;;;;;;;18.63;50.13;98298.78;4992828;28;20470;-71
2022/11/17 05:08:28;;;;;;;1.45;0.63;;;;;;;18.55;50.12;98289.16;4992851;28;20041;-71
2022/11/17 05:13:40;;;;;;;1.38;0.60;;;;;;;18.56;50.38;98287.34;4992458;28;20612;-72
2022/11/17 05:18:50;;;;;;;1.45;0.52;;;;;;;18.58;50.04;98295.88;4992701;28;20034;-71
2022/11/17 05:21:15;;;;;;;1.93;0.53;;;;;;;18.58;49.91;98301.13;4992879;28;20034;-72
2022/11/17 05:23:52;;;;;;;1.83;0.50;;;;;;;18.53;49.75;98320.16;4992661;28;20522;-72
2022/11/17 05:26:19;;;;;;;2.40;0.80;;;;;;;18.45;50.00;98313.22;4992089;28;20603;-71
2022/11/17 05:28:44;;;;;;;1.80;0.70;;;;;;;18.53;49.96;98322.81;4992740;28;20052;-71
2022/11/17 05:31:10;;;;;;;1.23;0.55;;;;;;;18.59;49.93;98326.53;4991987;28;20042;-72
2022/11/17 05:33:36;;;;;;;1.48;0.50;;;;;;;18.57;49.91;98329.34;4992893;28;20147;-71
2022/11/17 05:36:01;;;;;;;1.58;0.60;;;;;;;18.57;50.03;98333.81;4992210;28;20200;-71
2022/11/17 05:38:27;;;;;;;1.88;0.60;;;;;;;18.61;49.84;98337.69;4992496;28;20414;-71
2022/11/17 05:40:52;;;;;;;1.08;0.50;;;;;;;18.48;49.96;98318.13;4998655;28;20394;-71
2022/11/17 05:43:17;;;;;;;2.20;0.70;;;;;;;18.48;49.85;98331.31;5007283;28;20074;-71
2022/11/17 05:45:44;;;;;;;2.60;0.70;;;;;;;18.57;49.92;98347.00;4992559;28;20382;-71
2022/11/17 05:48:09;;;;;;;3.20;0.60;;;;;;;18.52;50.25;98336.19;4992162;28;20273;-70
2022/11/17 05:50:35;;;;;;;2.38;0.68;;;;;;;18.49;50.16;98337.38;4991959;28;20035;-72
2022/11/17 05:53:00;;;;;;;2.17;0.70;;;;;;;18.52;50.29;98338.81;4991684;28;20034;-72
2022/11/17 05:55:25;;;;;;;2.97;0.80;;;;;;;18.52;50.37;98342.28;4992094;28;20046;-72
2022/11/17 05:57:52;;;;;;;1.80;0.60;;;;;;;18.49;50.16;98345.28;4991946;28;20038;-71
2022/11/17 06:00:17;;;;;;;2.50;0.60;;;;;;;18.49;50.24;98353.22;4991066;28;20275;-71
2022/11/17 06:02:50;;;;;;;1.27;0.52;;;;;;;18.48;50.17;98355.03;4992061;28;20390;-71
2022/11/17 06:05:15;;;;;;;2.40;0.60;;;;;;;18.53;50.00;98361.56;4992427;28;20038;-71
2022/11/17 06:07:40;;;;;;;2.97;0.83;;;;;;;18.48;50.09;98357.69;4992085;28;20083;-72
2022/11/17 06:10:06;;;;;;;1.63;0.65;;;;;;;18.51;49.75;98367.00;4990945;28;20740;-71
2022/11/17 06:12:31;;;;;;;3.80;0.90;;;;;;;18.46;50.03;98367.56;4991560;28;20045;-71
2022/11/17 06:14:56;;;;;;;2.60;0.80;;;;;;;18.45;50.00;98363.31;4991863;28;20137;-70
2022/11/17 06:17:28;;;;;;;2.78;0.85;;;;;;;18.47;50.32;98369.22;4998673;28;20263;-71
2022/11/17 06:20:06;;;;;;;1.50;0.60;;;;;;;18.54;50.45;98385.09;4991988;28;20113;-70
2022/11/17 06:22:32;;;;;;;2.28;0.80;;;;;;;18.48;50.30;98365.59;4991208;28;20446;-72
2022/11/17 06:25:00;;;;;;;3.97;0.70;;;;;;;18.53;50.30;98377.38;4990822;28;20029;-70
2022/11/17 06:27:27;;;;;;;1.83;0.50;;;;;;;18.55;49.96;98375.38;4991039;28;20088;-71
2022/11/17 06:29:54;;;;;;;1.80;0.50;;;;;;;18.58;50.26;98388.19;4991690;28;20034;-71
2022/11/17 06:32:20;;;;;;;1.70;0.60;;;;;;;18.64;49.86;98390.91;4991618;28;20066;-71
2022/11/17 06:34:49;;;;;;;2.00;0.60;;;;;;;18.63;49.99;98389.28;4991192;28;20116;-71
2022/11/17 06:37:16;;;;;;;3.10;0.70;;;;;;;18.63;50.23;98386.63;4991153;28;20342;-72
2022/11/17 06:39:41;;;;;;;2.30;0.60;;;;;;;18.68;50.27;98394.78;4991316;28;20045;-71
2022/11/17 06:42:07;;;;;;;2.45;0.70;;;;;;;18.75;50.09;98397.50;4990720;28;20033;-72
2022/11/17 06:44:32;;;;;;;2.80;0.68;;;;;;;18.80;50.26;98394.28;4991230;28;20397;-71
2022/11/17 06:46:57;;;;;;;1.77;0.60;;;;;;;18.85;50.09;98405.16;4991228;28;20125;-70
2022/11/17 06:49:22;;;;;;;0.80;0.47;;;;;;;18.84;50.30;98399.03;4991370;28;20034;-73
2022/11/17 06:51:48;;;;;;;2.50;0.77;;;;;;;18.89;50.25;98397.66;4991175;28;20359;-70
2022/11/17 06:54:13;;;;;;;2.70;0.70;;;;;;;18.90;50.12;98402.75;4991151;28;20292;-73
2022/11/17 06:56:39;;;;;;;1.70;0.68;;;;;;;18.96;50.22;98407.28;4991461;28;20346;-71
2022/11/17 06:59:04;;;;;;;2.35;0.65;;;;;;;18.98;50.15;98413.19;4991267;28;20034;-72
2022/11/17 07:01:29;;;;;;;2.10;0.75;;;;;;;19.00;50.32;98405.09;4991528;28;20057;-75
2022/11/17 07:03:54;;;;;;;1.83;0.60;;;;;;;19.07;49.93;98413.88;4991053;28;20046;-72
2022/11/17 07:06:20;;;;;;;1.85;0.52;;;;;;;19.07;50.34;98420.97;4991487;28;20066;-71
2022/11/17 07:08:45;;;;;;;2.25;0.70;;;;;;;19.14;50.25;98421.88;4991797;28;20030;-71
2022/11/17 07:11:13;;;;;;;1.73;0.75;;;;;;;19.17;50.34;98424.13;4989282;28;20126;-75
2022/11/17 07:13:39;;;;;;;3.03;0.82;;;;;;;19.12;50.13;98418.56;4997699;28;20038;-71
2022/11/17 07:16:11;;;;;;;3.72;0.60;;;;;;;19.17;50.33;98432.06;4990984;28;20651;-72
2022/11/17 07:18:37;;;;;;;2.88;0.70;;;;;;;19.14;50.38;98429.78;4990488;28;21234;-71
2022/11/17 07:21:05;;;;;;;3.78;0.60;;;;;;;19.13;50.29;98428.94;4991152;28;20415;-73
2022/11/17 07:23:32;;;;;;;2.20;0.60;;;;;;;19.14;50.21;98433.22;4994628;28;20037;-69
2022/11/17 07:25:58;;;;;;;1.85;0.60;;;;;;;19.16;50.33;98440.97;4994868;28;20057;-69
2022/11/17 07:28:24;;;;;;;1.52;0.50;;;;;;;19.12;50.17;98439.69;4994437;28;20055;-70
2022/11/17 07:30:49;;;;;;;2.60;0.57;;;;;;;19.14;50.31;98438.50;4994547;28;20030;-71
2022/11/17 07:33:14;;;;;;;1.98;0.60;;;;;;;19.02;50.54;98425.00;4994485;28;20081;-71
2022/11/17 07:35:39;;;;;;;2.15;0.63;;;;;;;19.18;50.34;98452.16;4994049;28;20140;-70
2022/11/17 07:38:05;;;;;;;4.13;0.88;;;;;;;19.18;50.38;98446.88;4994653;28;20034;-74
2022/11/17 07:40:30;;;;;;;2.13;0.67;;;;;;;19.16;50.61;98462.09;4994717;28;20048;-71
2022/11/17 07:42:56;;;;;;;2.42;0.65;;;;;;;19.20;50.47;98453.59;4994142;28;20297;-70
2022/11/17 07:45:22;;;;;;;2.15;0.65;;;;;;;19.16;50.50;98462.09;4994588;28;20470;-72
2022/11/17 07:47:55;;;;;;;3.22;0.70;;;;;;;19.16;50.62;98464.72;4994419;28;20734;-72
2022/11/17 07:50:21;;;;;;;3.03;0.80;;;;;;;19.20;50.13;98472.09;4993951;28;20037;-71
2022/11/17 07:52:49;;;;;;;1.75;0.60;;;;;;;19.19;50.20;98465.16;4994561;28;20443;-73
2022/11/17 07:55:14;;;;;;;3.38;0.70;;;;;;;19.18;50.32;98471.47;4993904;28;20100;-71
2022/11/17 07:57:39;;;;;;;3.97;0.70;;;;;;;19.17;50.46;98476.94;4994324;28;20038;-71
2022/11/17 08:00:05;;;;;;;1.77;0.50;;;;;;;19.12;50.57;98472.22;5001095;28;20038;-70
2022/11/17 08:02:31;;;;;;;2.63;0.88;;;;;;;19.19;50.38;98480.19;4994252;28;20275;-74
2022/11/17 08:04:56;;;;;;;2.83;0.63;;;;;;;19.18;50.54;98482.03;4993713;28;21085;-69
2022/11/17 08:07:21;;;;;;;3.38;0.90;;;;;;;19.15;50.36;98466.56;4994257;28;20748;-69
2022/11/17 08:09:47;;;;;;;3.22;0.70;;;;;;;19.18;50.50;98492.59;4994092;28;20035;-68
2022/11/17 08:12:12;;;;;;;3.70;0.80;;;;;;;19.10;50.28;98476.84;4994255;28;20033;-71
2022/11/17 08:14:37;;;;;;;2.40;0.70;;;;;;;19.18;50.27;98484.66;4994132;28;20030;-72
2022/11/17 08:17:02;;;;;;;5.95;0.82;;;;;;;19.22;50.52;98500.94;4992188;28;20386;-71
2022/11/17 08:19:28;;;;;;;2.55;0.75;;;;;;;19.25;50.37;98500.56;4991529;28;20034;-75
2022/11/17 08:21:53;;;;;;;4.70;1.37;;;;;;;19.15;50.54;98498.25;4993175;28;20600;-75
2022/11/17 08:24:18;;;;;;;2.70;0.70;;;;;;;19.13;50.73;98513.44;4993521;28;20601;-77
2022/11/17 08:26:43;;;;;;;5.93;1.00;;;;;;;19.18;50.58;98519.00;4993119;28;20367;-72
2022/11/17 08:29:09;;;;;;;3.15;0.70;;;;;;;19.20;50.30;98511.69;4993576;28;20034;-74
2022/11/17 08:31:34;;;;;;;3.07;0.90;;;;;;;19.27;50.07;98517.03;4992000;28;20152;-74
2022/11/17 08:34:00;;;;;;;6.03;0.90;;;;;;;19.31;50.10;98512.19;4992605;28;20779;-77
2022/11/17 08:36:25;;;;;;;3.22;0.68;;;;;;;19.12;49.78;98480.13;4992762;28;20038;-77
2022/11/17 08:38:50;;;;;;;4.82;1.48;;;;;;;19.33;49.75;98511.00;4992525;28;20498;-76
2022/11/17 08:41:15;;;;;;;4.13;1.00;;;;;;;19.40;49.63;98521.63;4999292;28;20149;-78
2022/11/17 08:43:41;;;;;;;3.60;0.63;;;;;;;19.26;49.37;98496.09;4993205;28;20295;-81
2022/11/17 08:46:11;;;;;;;2.15;0.60;;;;;;;19.38;49.43;98521.81;4992421;28;20038;-76
2022/11/17 08:48:36;;;;;;;4.75;0.68;;;;;;;19.38;49.31;98511.25;4992460;28;20037;-75
2022/11/17 08:51:06;;;;;;;9.53;0.90;;;;;;;19.45;49.46;98529.78;4992302;28;20724;-75
2022/11/17 08:53:31;;;;;;;3.20;0.80;;;;;;;19.48;49.43;98539.16;4992227;28;20348;-77
2022/11/17 08:55:57;;;;;;;2.78;0.80;;;;;;;19.50;49.46;98529.22;4999067;28;20458;-78
2022/11/17 08:58:22;;;;;;;1.77;0.60;;;;;;;19.48;49.33;98525.97;4991713;28;20030;-74
2022/11/17 09:00:47;;;;;;;2.10;0.55;;;;;;;19.48;49.49;98536.53;4992258;28;20138;-76
2022/11/17 09:03:13;;;;;;;2.15;0.63;;;;;;;19.53;49.13;98537.59;4992816;28;20120;-75
2022/11/17 09:05:40;;;;;;;2.35;0.57;;;;;;;19.58;49.36;98548.41;4992504;28;20088;-71
2022/11/17 09:08:06;;;;;;;3.08;0.95;;;;;;;19.59;49.09;98551.88;4992023;28;20029;-78
2022/11/17 09:10:32;;;;;;;3.35;0.60;;;;;;;19.47;48.49;98546.28;4991862;28;20125;-78
2022/11/17 09:12:58;;;;;;;6.20;0.88;;;;;;;19.43;48.75;98550.31;4992113;28;20061;-73
2022/11/17 09:15:23;;;;;;;2.70;0.85;;;;;;;19.46;49.18;98555.22;4992774;28;20038;-76
2022/11/17 09:17:49;;;;;;;2.10;0.50;;;;;;;19.44;49.13;98559.03;4998728;28;20045;-77
2022/11/17 09:20:15;;;;;;;2.58;0.60;;;;;;;19.40;48.96;98543.56;4992740;28;20034;-78
2022/11/17 09:22:41;;;;;;;1.85;0.50;;;;;;;19.53;49.13;98564.00;4991748;28;20216;-74
2022/11/17 09:25:07;;;;;;;3.42;0.70;;;;;;;19.57;48.98;98569.75;4991797;28;20049;-79
2022/11/17 09:27:32;;;;;;;2.50;0.70;;;;;;;19.58;49.04;98569.56;4992191;28;20124;-78
2022/11/17 09:29:58;;;;;;;5.32;0.85;;;;;;;19.55;48.87;98563.81;4991231;28;20117;-77
2022/11/17 09:32:23;;;;;;;2.83;0.68;;;;;;;19.62;48.96;98577.09;4992017;28;20025;-76
2022/11/17 09:34:48;;;;;;;3.72;0.60;;;;;;;19.57;48.91;98575.03;4991229;28;20084;-78
2022/11/17 09:37:13;;;;;;;1.63;0.40;;;;;;;19.53;48.91;98565.84;4991897;28;20138;-75
2022/11/17 09:39:39;;;;;;;2.00;0.60;;;;;;;19.49;49.01;98575.16;4991223;28;20268;-76
2022/11/17 09:42:04;;;;;;;3.17;0.50;;;;;;;19.52;48.92;98593.28;4991627;28;20076;-75
2022/11/17 09:44:29;;;;;;;3.40;0.65;;;;;;;19.49;49.08;98589.19;4990255;28;20318;-73
2022/11/17 09:47:32;;;;;;;3.23;0.60;;;;;;;19.46;48.83;98583.47;4991434;28;20030;-77
2022/11/17 09:50:03;;;;;;;3.65;0.60;;;;;;;19.51;48.95;98578.41;4990216;28;20318;-75
2022/11/17 09:52:34;;;;;;;2.17;0.70;;;;;;;19.61;48.94;98597.41;4991903;28;20046;-74
2022/11/17 09:55:23;;;;;;;2.03;0.60;;;;;;;19.60;48.83;98598.44;4991543;28;20026;-73
2022/11/17 09:58:02;;;;;;;4.55;0.55;;;;;;;19.63;48.95;98594.56;4991250;28;20034;-81
2022/11/17 10:00:28;;;;;;;4.45;0.60;;;;;;;19.66;48.79;98589.75;4991501;28;20035;-78
2022/11/17 10:02:54;;;;;;;4.47;0.90;;;;;;;19.63;48.67;98592.78;4991198;28;20114;-76
2022/11/17 10:05:29;;;;;;;1.33;0.47;;;;;;;19.69;48.70;98607.88;4990923;28;20045;-76
2022/11/17 10:07:59;;;;;;;5.38;0.65;;;;;;;19.64;49.12;98612.88;4991419;28;20034;-79
2022/11/17 10:10:36;;;;;;;4.85;0.77;;;;;;;19.64;48.86;98617.38;4991217;28;20065;-74
2022/11/17 10:13:04;;;;;;;3.05;0.60;;;;;;;19.64;49.16;98622.66;4991122;28;20038;-78
2022/11/17 10:15:39;;;;;;;3.08;0.52;;;;;;;19.54;49.06;98600.00;4990930;28;20034;-72
2022/11/17 10:18:12;;;;;;;2.25;0.60;;;;;;;19.64;49.15;98628.75;4991161;28;20139;-73
2022/11/17 10:20:38;;;;;;;3.72;0.60;;;;;;;19.62;49.04;98611.47;4990851;28;20093;-77
2022/11/17 10:23:03;;;;;;;4.43;0.63;;;;;;;19.60;49.12;98614.28;4990788;28;20038;-78
2022/11/17 10:25:40;;;;;;;9.52;1.00;;;;;;;19.70;48.89;98628.00;4990842;28;20385;-75
2022/11/17 10:28:08;;;;;;;3.17;0.85;;;;;;;19.61;48.83;98617.72;4990537;28;20061;-75
2022/11/17 10:30:34;;;;;;;6.55;1.02;;;;;;;19.64;48.54;98646.44;4990961;28;20034;-74
2022/11/17 10:33:01;;;;;;;3.80;0.70;;;;;;;19.56;48.87;98640.25;4990761;28;20037;-78
2022/11/17 10:35:29;;;;;;;5.60;1.33;;;;;;;19.37;49.02;98625.81;4989963;28;20577;-78
2022/11/17 10:38:16;;;;;;;4.90;0.75;;;;;;;19.56;48.84;98655.28;4989834;28;20390;-75
2022/11/17 10:40:41;;;;;;;2.90;0.90;;;;;;;19.60;48.94;98651.28;4988705;28;20058;-72
2022/11/17 10:43:13;;;;;;;2.83;0.50;;;;;;;19.63;48.80;98655.34;4990641;28;20101;-73
2022/11/17 10:45:47;;;;;;;1.58;0.43;;;;;;;19.62;48.92;98651.91;4997613;28;20805;-72
2022/11/17 10:48:26;;;;;;;4.15;0.63;;;;;;;19.62;48.82;98640.53;4990062;28;20022;-72
2022/11/17 10:50:54;;;;;;;4.57;1.15;;;;;;;19.63;48.73;98650.06;4990131;28;20042;-72
2022/11/17 10:53:23;;;;;;;1.70;0.50;;;;;;;19.69;48.85;98663.38;4990083;28;20394;-72
2022/11/17 10:56:20;;;;;;;2.33;0.70;;;;;;;19.73;48.45;98666.44;4992311;28;20134;-72
2022/11/17 10:59:00;;;;;;;1.95;0.57;;;;;;;19.69;48.58;98649.31;4994012;28;20050;-76
2022/11/17 11:01:36;;;;;;;3.03;0.60;;;;;;;19.73;48.42;98658.53;4994713;28;20604;-74
2022/11/17 11:04:04;;;;;;;2.60;1.02;;;;;;;19.62;48.73;98648.44;4995078;28;20044;-79
2022/11/17 11:06:32;;;;;;;3.75;0.75;;;;;;;19.73;48.47;98661.16;5001019;28;20026;-78
2022/11/17 11:09:09;;;;;;;3.58;0.82;;;;;;;19.78;48.51;98665.91;4992976;28;20037;-75
2022/11/17 11:11:46;;;;;;;1.73;0.60;;;;;;;19.74;48.33;98657.50;4994131;28;20486;-73
2022/11/17 11:14:23;;;;;;;2.20;0.60;;;;;;;19.55;48.36;98633.34;4994091;28;20558;-74
2022/11/17 11:16:49;;;;;;;2.28;0.50;;;;;;;19.72;48.42;98678.00;4994467;28;20474;-73
2022/11/17 11:19:17;;;;;;;3.08;0.50;;;;;;;19.65;48.45;98679.78;4994188;28;20046;-75
2022/11/17 11:21:56;;;;;;;1.48;0.57;;;;;;;19.65;48.53;98682.44;4994429;28;20044;-74
2022/11/17 11:24:37;;;;;;;7.80;0.60;;;;;;;19.54;48.61;98678.44;4994067;28;20038;-72
2022/11/17 11:27:29;;;;;;;3.45;0.50;;;;;;;19.57;48.75;98678.88;4993438;28;20031;-72
2022/11/17 11:30:04;;;;;;;3.00;1.17;;;;;;;19.61;48.75;98687.25;4992158;28;20441;-74
2022/11/17 11:32:56;;;;;;;2.42;0.50;;;;;;;19.59;48.83;98678.69;4992840;28;20400;-69
2022/11/17 11:35:39;;;;;;;2.78;0.70;;;;;;;19.68;48.81;98701.34;4993382;28;20494;-68
2022/11/17 11:38:20;;;;;;;2.53;0.87;;;;;;;19.69;48.68;98699.53;4994114;28;20042;-65
2022/11/17 11:41:04;;;;;;;3.80;0.77;;;;;;;19.63;48.75;98695.81;4994224;28;20038;-65
2022/11/17 11:43:43;;;;;;;5.13;0.80;;;;;;;19.63;48.94;98700.25;4994763;28;20054;-66
2022/11/17 11:46:20;;;;;;;3.60;1.23;;;;;;;19.59;48.85;98699.81;4994688;28;20034;-66
2022/11/17 11:48:48;;;;;;;3.58;0.88;;;;;;;19.58;49.07;98703.47;4995012;28;20030;-71
2022/11/17 11:51:17;;;;;;;3.78;0.80;;;;;;;19.59;48.72;98726.25;4993360;28;20060;-66
2022/11/17 11:53:53;;;;;;;4.13;0.88;;;;;;;19.54;49.16;98718.88;4993730;28;20560;-68
2022/11/17 11:56:29;;;;;;;2.95;0.60;;;;;;;19.53;49.07;98725.16;4993403;28;20081;-67
2022/11/17 11:59:17;;;;;;;2.55;0.70;;;;;;;19.52;49.17;98717.44;4991980;28;20038;-70
2022/11/17 12:01:56;;;;;;;3.58;0.93;;;;;;;19.48;49.24;98708.22;4993991;28;20167;-67
2022/11/17 12:04:36;;;;;;;3.38;1.00;;;;;;;19.56;49.34;98721.34;4992388;28;20033;-70
2022/11/17 12:07:31;;;;;;;3.05;0.88;;;;;;;19.56;49.01;98710.75;4991908;28;20049;-69
2022/11/17 12:10:19;;;;;;;1.20;0.60;;;;;;;19.60;49.13;98727.06;4978820;28;20159;-69
2022/11/17 12:12:45;;;;;;;4.63;0.75;;;;;;;19.57;48.76;98710.59;4993473;28;20030;-75
2022/11/17 12:15:17;;;;;;;4.20;0.90;;;;;;;19.66;48.43;98721.03;4992912;28;20096;-69